AAL485 KIAH-KMFE
Flight info
| Callsign | AAL485 |
|---|---|
| Flight time | 1h 0m |
| Altitude | 30000 |
| Route | RITAA7 NGP |
| Aircraft | B38M/M-SDE1FGHILORVWXY/HB1 |
Departure
| Time | 2026-05-08 07:45 |
|---|---|
| Airport | George Bush Intercontinental Airport (KIAH) |
Arrival
| Time | 2026-05-08 08:46 |
|---|---|
| Airport | McAllen Miller International Airport (KMFE) |
| Time | Latitude | Longitude | Altitude | Speed | Heading |
|---|---|---|---|---|---|
| 2026-05-08 07:25 | 29.98549 | -95.35209 | 105 ft | 0 kts | 92° |
| 2026-05-08 07:37 | 29.98549 | -95.35224 | 105 ft | 2 kts | 86° |
| 2026-05-08 07:37 | 29.98547 | -95.35242 | 105 ft | 2 kts | 72° |
| 2026-05-08 07:37 | 29.98541 | -95.35258 | 105 ft | 2 kts | 49° |
| 2026-05-08 07:38 | 29.98530 | -95.35268 | 105 ft | 2 kts | 13° |
| 2026-05-08 07:38 | 29.98523 | -95.35270 | 105 ft | 0 kts | 0° |
| 2026-05-08 07:40 | 29.98524 | -95.35270 | 105 ft | 1 kts | 357° |
| 2026-05-08 07:40 | 29.98542 | -95.35290 | 105 ft | 7 kts | 312° |
| 2026-05-08 07:41 | 29.98599 | -95.35344 | 105 ft | 14 kts | 332° |
| 2026-05-08 07:41 | 29.98698 | -95.35406 | 105 ft | 19 kts | 332° |
| 2026-05-08 07:41 | 29.98790 | -95.35489 | 105 ft | 15 kts | 256° |
| 2026-05-08 07:41 | 29.98730 | -95.35620 | 105 ft | 22 kts | 238° |
| 2026-05-08 07:42 | 29.98661 | -95.35703 | 105 ft | 0 kts | 157° |
| 2026-05-08 07:45 | 29.98490 | -95.35610 | 105 ft | 70 kts | 148° |
| 2026-05-08 07:45 | 29.97813 | -95.35193 | 105 ft | 149 kts | 150° |
| 2026-05-08 07:45 | 29.96739 | -95.34509 | 384 ft | 195 kts | 151° |
| 2026-05-08 07:45 | 29.95491 | -95.33708 | 1241 ft | 208 kts | 147° |
| 2026-05-08 07:46 | 29.94447 | -95.32660 | 2514 ft | 192 kts | 129° |
| 2026-05-08 07:46 | 29.93635 | -95.31392 | 3304 ft | 205 kts | 127° |
| 2026-05-08 07:46 | 29.92752 | -95.30010 | 3811 ft | 228 kts | 128° |
| 2026-05-08 07:46 | 29.91760 | -95.28456 | 3937 ft | 250 kts | 128° |
| 2026-05-08 07:47 | 29.90705 | -95.26803 | 3997 ft | 264 kts | 128° |
| 2026-05-08 07:47 | 29.89582 | -95.25044 | 4006 ft | 271 kts | 128° |
| 2026-05-08 07:47 | 29.88480 | -95.23299 | 4138 ft | 273 kts | 127° |
| 2026-05-08 07:47 | 29.87360 | -95.21498 | 4744 ft | 280 kts | 127° |
| 2026-05-08 07:48 | 29.86207 | -95.19647 | 4892 ft | 283 kts | 127° |
| 2026-05-08 07:48 | 29.85052 | -95.17793 | 4964 ft | 282 kts | 127° |
| 2026-05-08 07:48 | 29.83934 | -95.16002 | 4970 ft | 280 kts | 127° |
| 2026-05-08 07:48 | 29.82762 | -95.14215 | 4964 ft | 278 kts | 132° |
| 2026-05-08 07:49 | 29.81390 | -95.12625 | 5264 ft | 284 kts | 140° |
| 2026-05-08 07:49 | 29.79838 | -95.11187 | 6410 ft | 281 kts | 144° |
| 2026-05-08 07:49 | 29.78274 | -95.09842 | 7357 ft | 286 kts | 146° |
| 2026-05-08 07:49 | 29.76544 | -95.08698 | 8231 ft | 286 kts | 165° |
| 2026-05-08 07:50 | 29.74614 | -95.08424 | 9159 ft | 279 kts | 189° |
| 2026-05-08 07:50 | 29.72770 | -95.09070 | 10106 ft | 273 kts | 213° |
| 2026-05-08 07:50 | 29.71317 | -95.10383 | 11038 ft | 271 kts | 227° |
| 2026-05-08 07:50 | 29.69902 | -95.11928 | 11587 ft | 289 kts | 224° |
| 2026-05-08 07:51 | 29.68304 | -95.13493 | 11980 ft | 309 kts | 223° |
| 2026-05-08 07:51 | 29.66620 | -95.15097 | 12585 ft | 319 kts | 223° |
| 2026-05-08 07:51 | 29.64956 | -95.16755 | 13411 ft | 319 kts | 226° |
| 2026-05-08 07:51 | 29.63350 | -95.18527 | 14252 ft | 320 kts | 228° |
| 2026-05-08 07:52 | 29.61752 | -95.20326 | 15056 ft | 322 kts | 227° |
| 2026-05-08 07:52 | 29.60135 | -95.22021 | 15762 ft | 327 kts | 223° |
| 2026-05-08 07:52 | 29.58266 | -95.23548 | 16456 ft | 333 kts | 217° |
| 2026-05-08 07:52 | 29.56216 | -95.24858 | 17143 ft | 339 kts | 213° |
| 2026-05-08 07:53 | 29.54102 | -95.26072 | 17815 ft | 342 kts | 212° |
| 2026-05-08 07:53 | 29.51941 | -95.27279 | 18413 ft | 347 kts | 211° |
| 2026-05-08 07:53 | 29.49809 | -95.28469 | 18951 ft | 352 kts | 211° |
| 2026-05-08 07:53 | 29.47598 | -95.29704 | 19588 ft | 354 kts | 211° |
| 2026-05-08 07:54 | 29.45347 | -95.30962 | 20216 ft | 357 kts | 211° |
| 2026-05-08 07:54 | 29.43134 | -95.32198 | 20809 ft | 359 kts | 212° |
| 2026-05-08 07:54 | 29.40875 | -95.33461 | 21387 ft | 361 kts | 212° |
| 2026-05-08 07:54 | 29.38601 | -95.34733 | 21946 ft | 364 kts | 212° |
| 2026-05-08 07:55 | 29.36341 | -95.35996 | 22479 ft | 366 kts | 212° |
| 2026-05-08 07:55 | 29.34038 | -95.37283 | 23049 ft | 367 kts | 212° |
| 2026-05-08 07:55 | 29.31800 | -95.38533 | 23557 ft | 368 kts | 212° |
| 2026-05-08 07:55 | 29.29428 | -95.39858 | 24034 ft | 371 kts | 212° |
| 2026-05-08 07:56 | 29.27107 | -95.41159 | 24502 ft | 373 kts | 212° |
| 2026-05-08 07:56 | 29.24779 | -95.42465 | 24983 ft | 375 kts | 212° |
| 2026-05-08 07:56 | 29.22398 | -95.43798 | 25439 ft | 377 kts | 212° |
| 2026-05-08 07:56 | 29.20038 | -95.45117 | 25861 ft | 379 kts | 212° |
| 2026-05-08 07:57 | 29.17689 | -95.46435 | 26405 ft | 377 kts | 213° |
| 2026-05-08 07:57 | 29.15346 | -95.47746 | 27056 ft | 373 kts | 213° |
| 2026-05-08 07:57 | 29.13020 | -95.49046 | 27638 ft | 371 kts | 213° |
| 2026-05-08 07:57 | 29.10717 | -95.50330 | 28185 ft | 369 kts | 213° |
| 2026-05-08 07:58 | 29.08407 | -95.51616 | 28740 ft | 368 kts | 213° |
| 2026-05-08 07:58 | 29.06122 | -95.52887 | 29285 ft | 366 kts | 214° |
| 2026-05-08 07:58 | 29.03835 | -95.54159 | 29798 ft | 365 kts | 214° |
| 2026-05-08 07:58 | 29.01540 | -95.55434 | 29969 ft | 368 kts | 214° |
| 2026-05-08 07:59 | 28.99245 | -95.56708 | 29983 ft | 368 kts | 214° |
| 2026-05-08 07:59 | 28.94692 | -95.59235 | 29993 ft | 362 kts | 214° |
| 2026-05-08 08:00 | 28.90493 | -95.62230 | 29994 ft | 350 kts | 228° |
| 2026-05-08 08:00 | 28.87207 | -95.66290 | 29994 ft | 346 kts | 234° |
| 2026-05-08 08:01 | 28.84109 | -95.70511 | 29994 ft | 346 kts | 234° |
| 2026-05-08 08:01 | 28.81735 | -95.73775 | 29994 ft | 346 kts | 234° |
| 2026-05-08 08:02 | 28.78669 | -95.78011 | 29994 ft | 346 kts | 234° |
| 2026-05-08 08:02 | 28.75615 | -95.82245 | 29994 ft | 346 kts | 234° |
| 2026-05-08 08:03 | 28.72567 | -95.86477 | 29994 ft | 347 kts | 234° |
| 2026-05-08 08:03 | 28.69491 | -95.90752 | 29994 ft | 347 kts | 234° |
| 2026-05-08 08:04 | 28.66454 | -95.95000 | 29994 ft | 347 kts | 234° |
| 2026-05-08 08:04 | 28.63412 | -95.99253 | 29994 ft | 347 kts | 234° |
| 2026-05-08 08:05 | 28.60378 | -96.03488 | 29994 ft | 347 kts | 234° |
| 2026-05-08 08:05 | 28.57325 | -96.07743 | 29994 ft | 346 kts | 234° |
| 2026-05-08 08:06 | 28.54263 | -96.12006 | 29996 ft | 347 kts | 234° |
| 2026-05-08 08:06 | 28.51211 | -96.16249 | 29996 ft | 347 kts | 234° |
| 2026-05-08 08:07 | 28.48165 | -96.20480 | 29996 ft | 347 kts | 234° |
| 2026-05-08 08:07 | 28.45172 | -96.24632 | 29997 ft | 346 kts | 234° |
| 2026-05-08 08:08 | 28.42140 | -96.28833 | 29998 ft | 346 kts | 234° |
| 2026-05-08 08:08 | 28.39090 | -96.33055 | 29998 ft | 346 kts | 234° |
| 2026-05-08 08:09 | 28.36029 | -96.37288 | 30001 ft | 345 kts | 234° |
| 2026-05-08 08:09 | 28.32982 | -96.41498 | 30001 ft | 345 kts | 234° |
| 2026-05-08 08:10 | 28.29938 | -96.45698 | 30001 ft | 345 kts | 234° |
| 2026-05-08 08:10 | 28.26867 | -96.49933 | 29997 ft | 346 kts | 234° |
| 2026-05-08 08:11 | 28.23813 | -96.54140 | 29996 ft | 346 kts | 234° |
| 2026-05-08 08:11 | 28.20752 | -96.58352 | 30000 ft | 344 kts | 234° |
| 2026-05-08 08:12 | 28.17715 | -96.62527 | 30003 ft | 344 kts | 234° |
| 2026-05-08 08:12 | 28.14672 | -96.66707 | 30002 ft | 344 kts | 234° |
| 2026-05-08 08:13 | 28.11614 | -96.70902 | 29991 ft | 347 kts | 233° |
| 2026-05-08 08:13 | 28.08521 | -96.75141 | 29976 ft | 348 kts | 233° |
| 2026-05-08 08:14 | 28.05440 | -96.79362 | 29972 ft | 348 kts | 233° |
| 2026-05-08 08:14 | 28.02364 | -96.83569 | 29974 ft | 347 kts | 233° |
| 2026-05-08 08:15 | 27.99282 | -96.87782 | 29972 ft | 347 kts | 233° |
| 2026-05-08 08:15 | 27.96725 | -96.91273 | 29972 ft | 347 kts | 233° |
| 2026-05-08 08:16 | 27.93113 | -96.96200 | 29974 ft | 348 kts | 233° |
| 2026-05-08 08:16 | 27.90550 | -96.99693 | 29975 ft | 348 kts | 233° |
| 2026-05-08 08:17 | 27.87471 | -97.03902 | 29976 ft | 348 kts | 233° |
| 2026-05-08 08:17 | 27.84373 | -97.08127 | 29981 ft | 348 kts | 233° |
| 2026-05-08 08:18 | 27.81282 | -97.12327 | 29983 ft | 348 kts | 233° |
| 2026-05-08 08:18 | 27.78182 | -97.16531 | 29981 ft | 349 kts | 233° |
| 2026-05-08 08:19 | 27.75067 | -97.20748 | 29974 ft | 350 kts | 233° |
| 2026-05-08 08:19 | 27.71952 | -97.24963 | 29972 ft | 348 kts | 233° |
| 2026-05-08 08:20 | 27.68460 | -97.28767 | 29870 ft | 356 kts | 217° |
| 2026-05-08 08:20 | 27.66290 | -97.30140 | 29477 ft | 355 kts | 216° |
| 2026-05-08 08:20 | 27.64164 | -97.31507 | 29102 ft | 351 kts | 216° |
| 2026-05-08 08:20 | 27.62045 | -97.32840 | 28737 ft | 350 kts | 215° |
| 2026-05-08 08:21 | 27.59923 | -97.34149 | 28355 ft | 348 kts | 215° |
| 2026-05-08 08:21 | 27.57793 | -97.35442 | 27977 ft | 347 kts | 214° |
| 2026-05-08 08:21 | 27.55673 | -97.36714 | 27605 ft | 345 kts | 214° |
| 2026-05-08 08:21 | 27.53560 | -97.37969 | 27234 ft | 343 kts | 214° |
| 2026-05-08 08:22 | 27.51462 | -97.39205 | 26865 ft | 341 kts | 213° |
| 2026-05-08 08:22 | 27.49369 | -97.40431 | 26500 ft | 339 kts | 213° |
| 2026-05-08 08:22 | 27.47284 | -97.41646 | 26137 ft | 337 kts | 213° |
| 2026-05-08 08:22 | 27.45210 | -97.42850 | 25769 ft | 335 kts | 213° |
| 2026-05-08 08:23 | 27.43119 | -97.44059 | 25401 ft | 333 kts | 213° |
| 2026-05-08 08:23 | 27.41067 | -97.45243 | 25036 ft | 332 kts | 213° |
| 2026-05-08 08:23 | 27.39023 | -97.46420 | 24673 ft | 330 kts | 213° |
| 2026-05-08 08:23 | 27.37010 | -97.47581 | 24312 ft | 328 kts | 213° |
| 2026-05-08 08:24 | 27.34955 | -97.48765 | 23945 ft | 327 kts | 213° |
| 2026-05-08 08:24 | 27.32940 | -97.49925 | 23591 ft | 326 kts | 212° |
| 2026-05-08 08:24 | 27.30926 | -97.51082 | 23233 ft | 325 kts | 212° |
| 2026-05-08 08:24 | 27.28918 | -97.52234 | 22867 ft | 324 kts | 212° |
| 2026-05-08 08:25 | 27.26914 | -97.53381 | 22500 ft | 323 kts | 212° |
| 2026-05-08 08:25 | 27.24932 | -97.54516 | 22149 ft | 321 kts | 212° |
| 2026-05-08 08:25 | 27.22908 | -97.55673 | 21781 ft | 320 kts | 212° |
| 2026-05-08 08:25 | 27.20926 | -97.56806 | 21427 ft | 319 kts | 212° |
| 2026-05-08 08:26 | 27.18959 | -97.57928 | 21079 ft | 318 kts | 212° |
| 2026-05-08 08:26 | 27.16987 | -97.59054 | 20720 ft | 317 kts | 211° |
| 2026-05-08 08:26 | 27.15050 | -97.60159 | 20373 ft | 316 kts | 211° |
| 2026-05-08 08:26 | 27.13105 | -97.61267 | 20030 ft | 315 kts | 211° |
| 2026-05-08 08:27 | 27.11118 | -97.62399 | 19668 ft | 314 kts | 211° |
| 2026-05-08 08:27 | 27.09178 | -97.63503 | 19321 ft | 313 kts | 211° |
| 2026-05-08 08:27 | 27.07236 | -97.64608 | 18968 ft | 313 kts | 211° |
| 2026-05-08 08:27 | 27.05303 | -97.65708 | 18616 ft | 313 kts | 211° |
| 2026-05-08 08:28 | 27.03371 | -97.66806 | 18272 ft | 311 kts | 211° |
| 2026-05-08 08:28 | 27.01434 | -97.67907 | 17928 ft | 310 kts | 211° |
| 2026-05-08 08:28 | 26.99517 | -97.68996 | 17589 ft | 309 kts | 211° |
| 2026-05-08 08:28 | 26.97609 | -97.70080 | 17259 ft | 307 kts | 211° |
| 2026-05-08 08:29 | 26.95708 | -97.71159 | 16920 ft | 306 kts | 210° |
| 2026-05-08 08:29 | 26.93808 | -97.72237 | 16578 ft | 306 kts | 210° |
| 2026-05-08 08:29 | 26.91925 | -97.73305 | 16285 ft | 304 kts | 210° |
| 2026-05-08 08:29 | 26.90053 | -97.74366 | 15960 ft | 303 kts | 210° |
| 2026-05-08 08:30 | 26.88167 | -97.75436 | 15615 ft | 303 kts | 210° |
| 2026-05-08 08:30 | 26.86292 | -97.76498 | 15274 ft | 303 kts | 210° |
| 2026-05-08 08:30 | 26.82523 | -97.78632 | 14605 ft | 303 kts | 209° |
| 2026-05-08 08:31 | 26.80624 | -97.79705 | 14262 ft | 302 kts | 210° |
| 2026-05-08 08:31 | 26.78757 | -97.80762 | 13929 ft | 299 kts | 210° |
| 2026-05-08 08:31 | 26.76903 | -97.81811 | 13601 ft | 297 kts | 210° |
| 2026-05-08 08:31 | 26.75065 | -97.82852 | 13276 ft | 297 kts | 210° |
| 2026-05-08 08:32 | 26.73231 | -97.83892 | 12952 ft | 296 kts | 210° |
| 2026-05-08 08:32 | 26.71395 | -97.84933 | 12628 ft | 296 kts | 209° |
| 2026-05-08 08:32 | 26.69560 | -97.85972 | 12307 ft | 296 kts | 208° |
| 2026-05-08 08:32 | 26.67720 | -97.87011 | 11976 ft | 296 kts | 208° |
| 2026-05-08 08:33 | 26.65886 | -97.88046 | 11641 ft | 295 kts | 208° |
| 2026-05-08 08:33 | 26.64063 | -97.89073 | 11311 ft | 293 kts | 208° |
| 2026-05-08 08:33 | 26.62302 | -97.90065 | 10997 ft | 293 kts | 208° |
| 2026-05-08 08:33 | 26.60435 | -97.91117 | 10670 ft | 292 kts | 208° |
| 2026-05-08 08:34 | 26.58624 | -97.92136 | 10444 ft | 289 kts | 208° |
| 2026-05-08 08:34 | 26.56858 | -97.93128 | 10292 ft | 282 kts | 208° |
| 2026-05-08 08:34 | 26.55097 | -97.94118 | 10140 ft | 276 kts | 209° |
| 2026-05-08 08:34 | 26.53424 | -97.95061 | 9980 ft | 272 kts | 208° |
| 2026-05-08 08:35 | 26.51737 | -97.96010 | 9710 ft | 271 kts | 208° |
| 2026-05-08 08:35 | 26.50065 | -97.96949 | 9431 ft | 269 kts | 208° |
| 2026-05-08 08:35 | 26.48393 | -97.97890 | 9153 ft | 268 kts | 210° |
| 2026-05-08 08:35 | 26.46978 | -97.99190 | 8871 ft | 265 kts | 235° |
| 2026-05-08 08:36 | 26.46259 | -98.01086 | 8564 ft | 265 kts | 255° |
| 2026-05-08 08:36 | 26.45912 | -98.03105 | 8257 ft | 265 kts | 259° |
| 2026-05-08 08:36 | 26.45660 | -98.05132 | 7960 ft | 264 kts | 262° |
| 2026-05-08 08:36 | 26.45448 | -98.07160 | 7666 ft | 264 kts | 262° |
| 2026-05-08 08:37 | 26.45236 | -98.09190 | 7371 ft | 263 kts | 262° |
| 2026-05-08 08:37 | 26.45025 | -98.11214 | 7078 ft | 262 kts | 262° |
| 2026-05-08 08:37 | 26.44815 | -98.13221 | 6783 ft | 262 kts | 262° |
| 2026-05-08 08:37 | 26.44603 | -98.15243 | 6485 ft | 261 kts | 262° |
| 2026-05-08 08:38 | 26.44392 | -98.17252 | 6190 ft | 261 kts | 262° |
| 2026-05-08 08:38 | 26.44181 | -98.19254 | 5884 ft | 260 kts | 262° |
| 2026-05-08 08:38 | 26.43968 | -98.21279 | 5571 ft | 260 kts | 263° |
| 2026-05-08 08:38 | 26.43758 | -98.23278 | 5258 ft | 259 kts | 263° |
| 2026-05-08 08:39 | 26.43549 | -98.25266 | 4947 ft | 259 kts | 263° |
| 2026-05-08 08:39 | 26.43293 | -98.27253 | 4630 ft | 258 kts | 256° |
| 2026-05-08 08:39 | 26.42623 | -98.29086 | 4314 ft | 256 kts | 238° |
| 2026-05-08 08:39 | 26.41567 | -98.30671 | 4018 ft | 254 kts | 230° |
| 2026-05-08 08:40 | 26.40404 | -98.32138 | 3860 ft | 250 kts | 227° |
| 2026-05-08 08:40 | 26.39281 | -98.33574 | 3714 ft | 242 kts | 229° |
| 2026-05-08 08:40 | 26.38215 | -98.34984 | 3578 ft | 234 kts | 229° |
| 2026-05-08 08:40 | 26.37203 | -98.36335 | 3467 ft | 220 kts | 229° |
| 2026-05-08 08:41 | 26.36254 | -98.37599 | 3338 ft | 207 kts | 227° |
| 2026-05-08 08:41 | 26.35116 | -98.38466 | 3191 ft | 196 kts | 196° |
| 2026-05-08 08:41 | 26.33783 | -98.38489 | 3069 ft | 190 kts | 165° |
| 2026-05-08 08:41 | 26.32626 | -98.37832 | 2954 ft | 186 kts | 145° |
| 2026-05-08 08:42 | 26.31630 | -98.36939 | 2846 ft | 187 kts | 140° |
| 2026-05-08 08:42 | 26.30643 | -98.35975 | 2737 ft | 188 kts | 140° |
| 2026-05-08 08:42 | 26.29650 | -98.35042 | 2638 ft | 185 kts | 140° |
| 2026-05-08 08:42 | 26.28664 | -98.34129 | 2534 ft | 183 kts | 140° |
| 2026-05-08 08:43 | 26.27699 | -98.33235 | 2429 ft | 186 kts | 141° |
| 2026-05-08 08:43 | 26.26687 | -98.32301 | 2240 ft | 187 kts | 142° |
| 2026-05-08 08:43 | 26.25716 | -98.31409 | 2058 ft | 173 kts | 142° |
| 2026-05-08 08:43 | 26.24843 | -98.30612 | 1913 ft | 153 kts | 141° |
| 2026-05-08 08:44 | 26.24069 | -98.29909 | 1759 ft | 134 kts | 138° |
| 2026-05-08 08:44 | 26.23338 | -98.29245 | 1435 ft | 138 kts | 135° |
| 2026-05-08 08:44 | 26.22579 | -98.28552 | 1235 ft | 142 kts | 134° |
| 2026-05-08 08:44 | 26.21819 | -98.27853 | 1054 ft | 142 kts | 142° |
| 2026-05-08 08:45 | 26.21070 | -98.27155 | 861 ft | 135 kts | 143° |
| 2026-05-08 08:45 | 26.20367 | -98.26522 | 687 ft | 136 kts | 142° |
| 2026-05-08 08:45 | 26.19605 | -98.25831 | 502 ft | 139 kts | 141° |
| 2026-05-08 08:45 | 26.18854 | -98.25148 | 311 ft | 141 kts | 147° |
| 2026-05-08 08:46 | 26.18078 | -98.24492 | 141 ft | 138 kts | 135° |
| 2026-05-08 08:46 | 26.17434 | -98.23886 | 115 ft | 89 kts | 139° |
| 2026-05-08 08:46 | 26.17196 | -98.23660 | 115 ft | 19 kts | 122° |
| 2026-05-08 08:46 | 26.17157 | -98.23656 | 115 ft | 3 kts | 286° |
| 2026-05-08 08:47 | 26.17169 | -98.23671 | 115 ft | 3 kts | 315° |
| 2026-05-08 08:47 | 26.17195 | -98.23693 | 115 ft | 6 kts | 324° |
| 2026-05-08 08:47 | 26.17227 | -98.23719 | 115 ft | 6 kts | 324° |
| 2026-05-08 08:47 | 26.17265 | -98.23749 | 115 ft | 7 kts | 324° |
| 2026-05-08 08:48 | 26.17308 | -98.23784 | 115 ft | 8 kts | 324° |
| 2026-05-08 08:48 | 26.17359 | -98.23825 | 115 ft | 10 kts | 324° |
| 2026-05-08 08:48 | 26.17421 | -98.23875 | 115 ft | 12 kts | 324° |
| 2026-05-08 08:48 | 26.17497 | -98.23937 | 115 ft | 15 kts | 324° |
| 2026-05-08 08:49 | 26.17585 | -98.24007 | 115 ft | 17 kts | 321° |
| 2026-05-08 08:49 | 26.17655 | -98.24082 | 115 ft | 14 kts | 350° |
| 2026-05-08 08:49 | 26.17729 | -98.24029 | 115 ft | 14 kts | 48° |
| 2026-05-08 08:49 | 26.17799 | -98.23981 | 115 ft | 0 kts | 28° |